createdAt,value
2023-02-15T00:03:53.647Z,100.00
2023-02-15T00:10:35.900Z,100.00
2023-02-15T00:17:18.240Z,100.00
2023-02-15T00:24:05.016Z,100.00
2023-02-15T00:30:47.389Z,100.00
2023-02-15T00:37:29.843Z,100.00
2023-02-15T00:44:12.532Z,99.62
2023-02-15T00:50:58.517Z,99.09
2023-02-15T00:57:40.958Z,98.73
2023-02-15T01:04:23.260Z,98.57
2023-02-15T01:11:09.493Z,98.39
2023-02-15T01:17:53.837Z,98.18
2023-02-15T01:24:37.552Z,97.82
2023-02-15T01:31:22.689Z,97.73
2023-02-15T01:38:05.058Z,97.59
2023-02-15T01:45:04.196Z,97.47
2023-02-15T01:51:49.843Z,97.08
2023-02-15T01:58:35.146Z,96.27
2023-02-15T02:05:19.343Z,96.49
2023-02-15T02:12:02.407Z,96.09
2023-02-15T02:19:34.181Z,96.25
2023-02-15T02:34:32.292Z,96.84
2023-02-15T02:42:00.765Z,96.84
2023-02-15T02:48:43.355Z,97.23
2023-02-15T02:56:02.895Z,97.28
2023-02-15T03:02:48.429Z,97.25
2023-02-15T03:09:43.506Z,97.47
2023-02-15T03:16:29.455Z,97.51
2023-02-15T03:23:18.859Z,97.70
2023-02-15T03:30:03.368Z,97.92
2023-02-15T03:37:20.585Z,97.82
2023-02-15T03:44:14.824Z,98.17
2023-02-15T03:51:23.589Z,98.62
2023-02-15T03:58:24.991Z,98.89
2023-02-15T04:05:07.488Z,98.63
2023-02-15T04:11:50.080Z,98.55
2023-02-15T04:18:55.800Z,98.58
2023-02-15T04:25:38.263Z,98.91
2023-02-15T04:32:20.792Z,98.76
2023-02-15T04:39:19.817Z,98.77
2023-02-15T04:46:02.595Z,99.07
2023-02-15T04:52:45.073Z,99.44
2023-02-15T04:59:27.476Z,99.50
2023-02-15T05:06:09.921Z,99.68
2023-02-15T05:12:52.359Z,99.65
2023-02-15T05:19:34.556Z,100.00
2023-02-15T05:26:43.554Z,100.00
2023-02-15T05:33:25.977Z,100.00
2023-02-15T05:40:09.351Z,100.00
2023-02-15T05:46:51.838Z,100.00
2023-02-15T05:53:37.982Z,100.00
2023-02-15T06:00:20.831Z,100.00
2023-02-15T06:07:03.315Z,100.00
2023-02-15T06:13:45.931Z,100.00
2023-02-15T06:20:28.489Z,100.00
2023-02-15T06:27:11.864Z,100.00
2023-02-15T06:34:01.797Z,100.00
2023-02-15T06:40:44.212Z,100.00
2023-02-15T06:47:27.534Z,100.00
2023-02-15T07:01:56.571Z,100.00
2023-02-15T07:08:40.384Z,100.00
2023-02-15T07:15:23.203Z,100.00
2023-02-15T07:22:06.065Z,100.00
2023-02-15T07:28:48.706Z,100.00
2023-02-15T07:35:31.014Z,100.00
2023-02-15T07:42:13.622Z,100.00
2023-02-15T07:48:57.431Z,100.00
2023-02-15T07:55:39.900Z,100.00
2023-02-15T08:02:22.792Z,100.00
2023-02-15T08:09:11.566Z,100.00
2023-02-15T08:15:53.844Z,100.00
2023-02-15T08:22:36.038Z,100.00
2023-02-15T08:29:29.025Z,100.00
2023-02-15T08:36:17.819Z,100.00
2023-02-15T08:43:00.278Z,100.00
2023-02-15T08:49:45.247Z,99.48
2023-02-15T08:56:35.857Z,98.82
2023-02-15T09:03:18.755Z,99.27
2023-02-15T09:10:04.219Z,98.28
2023-02-15T09:16:50.050Z,97.63
2023-02-15T09:23:32.548Z,97.72
2023-02-15T09:30:15.298Z,98.17
2023-02-15T09:36:57.947Z,98.29
2023-02-15T10:30:02.147Z,88.56
2023-02-15T10:37:18.075Z,84.51
2023-02-15T10:44:43.621Z,83.09
2023-02-15T10:51:59.179Z,80.23
2023-02-15T10:58:59.969Z,79.59
2023-02-15T11:06:13.361Z,78.87
2023-02-15T11:12:58.948Z,78.54
2023-02-15T11:20:22.917Z,77.57
2023-02-15T11:27:16.078Z,76.83
2023-02-15T11:34:14.535Z,76.78
2023-02-15T11:41:15.954Z,75.18
2023-02-15T11:48:02.738Z,75.80
2023-02-15T11:54:51.115Z,76.60
2023-02-15T12:01:38.910Z,77.27
2023-02-15T12:08:22.878Z,77.27
2023-02-15T12:15:09.844Z,76.74
2023-02-15T12:21:54.108Z,77.11
2023-02-15T12:28:45.819Z,76.92
2023-02-15T12:35:36.040Z,77.32
2023-02-15T12:42:20.615Z,77.08
2023-02-15T12:49:21.186Z,76.56
2023-02-15T12:56:08.205Z,76.04
2023-02-15T13:02:55.992Z,75.96
2023-02-15T13:09:40.886Z,75.79
2023-02-15T13:16:40.777Z,75.43
2023-02-15T13:23:30.559Z,75.81
2023-02-15T13:30:43.174Z,76.04
2023-02-15T13:38:09.758Z,75.95
2023-02-15T13:45:31.555Z,75.89
2023-02-15T13:52:26.082Z,75.73
2023-02-15T13:59:41.524Z,75.57
2023-02-15T14:07:06.461Z,75.84
2023-02-15T14:14:23.410Z,75.99
2023-02-15T14:21:26.653Z,76.07
2023-02-15T14:28:18.467Z,76.86
2023-02-15T14:35:04.486Z,77.00
2023-02-15T14:41:57.939Z,77.33
2023-02-15T14:48:49.372Z,77.54
2023-02-15T14:55:38.328Z,77.67
2023-02-15T15:02:43.571Z,77.99
2023-02-15T15:09:31.889Z,78.21
2023-02-15T15:16:37.142Z,78.71
2023-02-15T15:23:19.372Z,78.92
2023-02-15T15:30:02.498Z,79.22
2023-02-15T15:37:22.857Z,79.50
2023-02-15T15:44:27.137Z,79.95
2023-02-15T15:51:20.692Z,80.27
2023-02-15T15:58:07.194Z,80.64
2023-02-15T16:04:49.480Z,81.22
2023-02-15T16:11:32.508Z,81.48
2023-02-15T16:18:18.419Z,81.44
2023-02-15T16:25:43.731Z,81.57
2023-02-15T16:32:28.212Z,81.68
2023-02-15T16:39:19.947Z,82.00
2023-02-15T16:46:21.644Z,82.03
2023-02-15T16:53:07.493Z,82.27
2023-02-15T16:59:53.376Z,82.33
2023-02-15T17:06:36.769Z,82.23
2023-02-15T17:13:19.202Z,82.59
2023-02-15T17:20:01.454Z,82.23
2023-02-15T17:26:43.732Z,82.61
2023-02-15T17:33:36.469Z,82.63
2023-02-15T17:40:33.872Z,82.74
2023-02-15T17:47:23.337Z,83.04
2023-02-15T17:54:24.553Z,83.11
2023-02-15T18:01:38.587Z,83.56
2023-02-15T18:08:46.165Z,84.03
2023-02-15T18:15:28.606Z,84.54
2023-02-15T18:22:19.422Z,84.58
2023-02-15T18:29:01.618Z,84.75
2023-02-15T18:35:44.716Z,84.76
2023-02-15T18:42:31.457Z,84.97
2023-02-15T18:49:13.751Z,85.40
2023-02-15T18:55:56.087Z,85.84
2023-02-15T19:02:39.138Z,86.23
2023-02-15T19:09:24.616Z,86.54
2023-02-15T19:16:08.850Z,86.71
2023-02-15T19:22:53.388Z,86.24
2023-02-15T19:29:36.589Z,86.18
2023-02-15T19:36:21.531Z,86.46
2023-02-15T19:43:10.412Z,86.80
2023-02-15T19:49:52.685Z,87.18
2023-02-15T19:56:34.970Z,87.79
2023-02-15T20:03:17.684Z,87.89
2023-02-15T20:09:59.916Z,88.51
2023-02-15T20:16:42.468Z,88.85
2023-02-15T20:23:31.310Z,89.56
2023-02-15T20:30:26.928Z,89.75
2023-02-15T20:37:23.877Z,89.97
2023-02-15T20:44:26.120Z,90.57
2023-02-15T20:51:20.382Z,90.76
2023-02-15T20:58:03.534Z,90.85
2023-02-15T21:04:46.078Z,91.05
2023-02-15T21:11:28.353Z,91.30
2023-02-15T21:18:31.509Z,91.38
2023-02-15T21:25:33.035Z,91.63
2023-02-15T21:32:15.508Z,91.86
2023-02-15T21:38:57.839Z,91.62
2023-02-15T21:45:58.945Z,91.99
2023-02-15T21:52:41.144Z,92.43
2023-02-15T21:59:23.419Z,92.56
2023-02-15T22:06:06.221Z,92.77
2023-02-15T22:12:56.396Z,93.38
2023-02-15T22:19:38.820Z,93.86
2023-02-15T22:26:25.011Z,94.38
2023-02-15T22:33:20.485Z,94.98
2023-02-15T22:40:02.774Z,95.07
2023-02-15T22:46:45.081Z,95.46
2023-02-15T22:53:27.398Z,95.77
2023-02-15T23:00:18.080Z,95.74
2023-02-15T23:07:01.047Z,96.20
2023-02-15T23:13:43.592Z,96.54
2023-02-15T23:20:26.165Z,96.63
2023-02-15T23:27:36.035Z,96.89
2023-02-15T23:34:29.628Z,97.39
2023-02-15T23:41:21.730Z,97.77
2023-02-15T23:48:22.976Z,97.92
2023-02-15T23:55:05.690Z,97.83
